sensor_id;sensor_type;location;lat;lon;timestamp;P1;durP1;ratioP1;P2;durP2;ratioP2
20138;SDS011;10230;51.502;10.800;2023-03-01T00:01:39;5.77;;;3.07;;
20138;SDS011;10230;51.502;10.800;2023-03-01T00:04:05;6.93;;;4.20;;
20138;SDS011;10230;51.502;10.800;2023-03-01T00:06:31;6.77;;;3.33;;
20138;SDS011;10230;51.502;10.800;2023-03-01T00:08:56;6.43;;;2.77;;
20138;SDS011;10230;51.502;10.800;2023-03-01T00:11:23;7.20;;;4.00;;
20138;SDS011;10230;51.502;10.800;2023-03-01T00:13:52;5.53;;;3.87;;
20138;SDS011;10230;51.502;10.800;2023-03-01T00:16:21;5.87;;;2.97;;
20138;SDS011;10230;51.502;10.800;2023-03-01T00:18:50;6.67;;;4.00;;
20138;SDS011;10230;51.502;10.800;2023-03-01T00:21:16;8.93;;;3.63;;
20138;SDS011;10230;51.502;10.800;2023-03-01T00:23:42;6.70;;;2.87;;
20138;SDS011;10230;51.502;10.800;2023-03-01T00:26:09;6.47;;;2.70;;
20138;SDS011;10230;51.502;10.800;2023-03-01T00:28:37;7.10;;;4.10;;
20138;SDS011;10230;51.502;10.800;2023-03-01T00:31:04;6.83;;;3.20;;
20138;SDS011;10230;51.502;10.800;2023-03-01T00:33:31;6.03;;;3.20;;
20138;SDS011;10230;51.502;10.800;2023-03-01T00:36:00;7.33;;;3.93;;
20138;SDS011;10230;51.502;10.800;2023-03-01T00:38:26;9.43;;;3.90;;
20138;SDS011;10230;51.502;10.800;2023-03-01T00:40:52;7.20;;;3.60;;
20138;SDS011;10230;51.502;10.800;2023-03-01T00:43:18;6.53;;;3.63;;
20138;SDS011;10230;51.502;10.800;2023-03-01T00:45:43;6.67;;;3.67;;
20138;SDS011;10230;51.502;10.800;2023-03-01T00:48:09;9.60;;;4.70;;
20138;SDS011;10230;51.502;10.800;2023-03-01T00:50:35;8.90;;;3.87;;
20138;SDS011;10230;51.502;10.800;2023-03-01T00:53:00;6.40;;;3.50;;
20138;SDS011;10230;51.502;10.800;2023-03-01T00:55:26;6.17;;;2.90;;
20138;SDS011;10230;51.502;10.800;2023-03-01T00:57:52;6.67;;;2.70;;
20138;SDS011;10230;51.502;10.800;2023-03-01T01:00:18;6.00;;;3.43;;
20138;SDS011;10230;51.502;10.800;2023-03-01T01:02:44;4.47;;;2.83;;
20138;SDS011;10230;51.502;10.800;2023-03-01T01:05:10;7.80;;;4.43;;
20138;SDS011;10230;51.502;10.800;2023-03-01T01:07:36;4.73;;;3.43;;
20138;SDS011;10230;51.502;10.800;2023-03-01T01:10:03;6.93;;;3.77;;
20138;SDS011;10230;51.502;10.800;2023-03-01T01:12:28;7.07;;;4.00;;
20138;SDS011;10230;51.502;10.800;2023-03-01T01:14:54;8.27;;;3.67;;
20138;SDS011;10230;51.502;10.800;2023-03-01T01:17:20;7.97;;;3.13;;
20138;SDS011;10230;51.502;10.800;2023-03-01T01:19:45;5.83;;;4.07;;
20138;SDS011;10230;51.502;10.800;2023-03-01T01:22:11;5.80;;;3.33;;
20138;SDS011;10230;51.502;10.800;2023-03-01T01:24:37;5.73;;;3.03;;
20138;SDS011;10230;51.502;10.800;2023-03-01T01:27:02;4.77;;;2.77;;
20138;SDS011;10230;51.502;10.800;2023-03-01T01:29:28;7.03;;;2.90;;
20138;SDS011;10230;51.502;10.800;2023-03-01T01:31:53;4.67;;;2.30;;
20138;SDS011;10230;51.502;10.800;2023-03-01T01:34:20;5.93;;;2.93;;
20138;SDS011;10230;51.502;10.800;2023-03-01T01:36:50;3.97;;;2.20;;
20138;SDS011;10230;51.502;10.800;2023-03-01T01:39:21;8.03;;;3.13;;
20138;SDS011;10230;51.502;10.800;2023-03-01T01:41:47;6.03;;;3.40;;
20138;SDS011;10230;51.502;10.800;2023-03-01T01:44:20;7.97;;;3.57;;
20138;SDS011;10230;51.502;10.800;2023-03-01T01:52:02;4.63;;;3.03;;
20138;SDS011;10230;51.502;10.800;2023-03-01T01:54:39;5.93;;;3.07;;
20138;SDS011;10230;51.502;10.800;2023-03-01T01:57:12;5.30;;;2.37;;
20138;SDS011;10230;51.502;10.800;2023-03-01T01:59:50;6.23;;;3.67;;
20138;SDS011;10230;51.502;10.800;2023-03-01T02:02:18;6.50;;;2.60;;
20138;SDS011;10230;51.502;10.800;2023-03-01T02:04:44;6.00;;;2.83;;
20138;SDS011;10230;51.502;10.800;2023-03-01T02:07:16;5.43;;;3.07;;
20138;SDS011;10230;51.502;10.800;2023-03-01T02:09:46;6.07;;;3.67;;
20138;SDS011;10230;51.502;10.800;2023-03-01T02:12:13;6.00;;;2.30;;
20138;SDS011;10230;51.502;10.800;2023-03-01T02:14:42;3.07;;;2.07;;
20138;SDS011;10230;51.502;10.800;2023-03-01T02:17:08;3.87;;;2.87;;
20138;SDS011;10230;51.502;10.800;2023-03-01T02:22:23;4.03;;;2.73;;
20138;SDS011;10230;51.502;10.800;2023-03-01T02:27:33;5.87;;;4.07;;
20138;SDS011;10230;51.502;10.800;2023-03-01T02:30:13;8.30;;;3.60;;
20138;SDS011;10230;51.502;10.800;2023-03-01T02:32:42;4.67;;;3.23;;
20138;SDS011;10230;51.502;10.800;2023-03-01T02:35:09;4.63;;;2.27;;
20138;SDS011;10230;51.502;10.800;2023-03-01T02:37:38;4.70;;;2.70;;
20138;SDS011;10230;51.502;10.800;2023-03-01T02:40:06;3.70;;;2.47;;
20138;SDS011;10230;51.502;10.800;2023-03-01T02:42:37;5.67;;;3.03;;
20138;SDS011;10230;51.502;10.800;2023-03-01T02:45:12;4.77;;;2.27;;
20138;SDS011;10230;51.502;10.800;2023-03-01T02:47:37;5.13;;;2.60;;
20138;SDS011;10230;51.502;10.800;2023-03-01T02:50:09;3.83;;;2.40;;
20138;SDS011;10230;51.502;10.800;2023-03-01T02:55:28;4.37;;;2.70;;
20138;SDS011;10230;51.502;10.800;2023-03-01T02:57:54;4.00;;;2.37;;
20138;SDS011;10230;51.502;10.800;2023-03-01T03:00:22;3.63;;;2.17;;
20138;SDS011;10230;51.502;10.800;2023-03-01T03:02:53;10.57;;;3.50;;
20138;SDS011;10230;51.502;10.800;2023-03-01T03:05:29;4.97;;;2.23;;
20138;SDS011;10230;51.502;10.800;2023-03-01T03:07:56;3.53;;;1.90;;
20138;SDS011;10230;51.502;10.800;2023-03-01T03:10:27;4.90;;;2.63;;
20138;SDS011;10230;51.502;10.800;2023-03-01T03:12:55;6.47;;;3.67;;
20138;SDS011;10230;51.502;10.800;2023-03-01T03:15:24;3.77;;;2.27;;
20138;SDS011;10230;51.502;10.800;2023-03-01T03:17:51;4.63;;;2.63;;
20138;SDS011;10230;51.502;10.800;2023-03-01T03:20:18;4.17;;;2.73;;
20138;SDS011;10230;51.502;10.800;2023-03-01T03:22:50;4.80;;;2.43;;
20138;SDS011;10230;51.502;10.800;2023-03-01T03:25:17;6.60;;;2.30;;
20138;SDS011;10230;51.502;10.800;2023-03-01T03:27:45;5.40;;;2.43;;
20138;SDS011;10230;51.502;10.800;2023-03-01T03:30:14;6.30;;;2.37;;
20138;SDS011;10230;51.502;10.800;2023-03-01T03:32:43;4.97;;;2.80;;
20138;SDS011;10230;51.502;10.800;2023-03-01T03:35:17;4.73;;;2.17;;
20138;SDS011;10230;51.502;10.800;2023-03-01T03:37:44;3.57;;;2.20;;
20138;SDS011;10230;51.502;10.800;2023-03-01T03:40:35;6.70;;;2.53;;
20138;SDS011;10230;51.502;10.800;2023-03-01T03:43:03;3.27;;;1.70;;
20138;SDS011;10230;51.502;10.800;2023-03-01T03:45:30;5.77;;;2.57;;
20138;SDS011;10230;51.502;10.800;2023-03-01T03:47:58;5.57;;;2.50;;
20138;SDS011;10230;51.502;10.800;2023-03-01T03:50:25;3.00;;;2.27;;
20138;SDS011;10230;51.502;10.800;2023-03-01T03:52:50;3.50;;;2.07;;
20138;SDS011;10230;51.502;10.800;2023-03-01T03:55:16;3.90;;;2.27;;
20138;SDS011;10230;51.502;10.800;2023-03-01T03:57:44;4.63;;;2.23;;
20138;SDS011;10230;51.502;10.800;2023-03-01T04:00:16;3.97;;;2.27;;
20138;SDS011;10230;51.502;10.800;2023-03-01T04:02:43;5.13;;;2.77;;
20138;SDS011;10230;51.502;10.800;2023-03-01T04:05:10;4.63;;;2.80;;
20138;SDS011;10230;51.502;10.800;2023-03-01T04:07:37;6.67;;;3.33;;
20138;SDS011;10230;51.502;10.800;2023-03-01T04:10:04;5.73;;;2.40;;
20138;SDS011;10230;51.502;10.800;2023-03-01T04:12:32;5.70;;;2.83;;
20138;SDS011;10230;51.502;10.800;2023-03-01T04:15:02;7.50;;;3.30;;
20138;SDS011;10230;51.502;10.800;2023-03-01T04:17:37;6.00;;;3.07;;
20138;SDS011;10230;51.502;10.800;2023-03-01T04:20:04;5.03;;;2.63;;
20138;SDS011;10230;51.502;10.800;2023-03-01T04:22:33;8.07;;;2.63;;
20138;SDS011;10230;51.502;10.800;2023-03-01T04:24:58;7.43;;;2.70;;
20138;SDS011;10230;51.502;10.800;2023-03-01T04:27:31;5.13;;;3.43;;
20138;SDS011;10230;51.502;10.800;2023-03-01T04:30:00;5.80;;;2.60;;
20138;SDS011;10230;51.502;10.800;2023-03-01T04:32:26;5.50;;;2.87;;
20138;SDS011;10230;51.502;10.800;2023-03-01T04:34:52;4.53;;;3.17;;
20138;SDS011;10230;51.502;10.800;2023-03-01T04:37:17;3.50;;;2.27;;
20138;SDS011;10230;51.502;10.800;2023-03-01T04:39:43;6.23;;;2.63;;
20138;SDS011;10230;51.502;10.800;2023-03-01T04:42:12;3.20;;;2.30;;
20138;SDS011;10230;51.502;10.800;2023-03-01T04:44:38;4.70;;;2.63;;
20138;SDS011;10230;51.502;10.800;2023-03-01T04:47:04;5.30;;;2.00;;
20138;SDS011;10230;51.502;10.800;2023-03-01T04:49:30;19.50;;;8.53;;
20138;SDS011;10230;51.502;10.800;2023-03-01T04:51:56;8.43;;;4.00;;
20138;SDS011;10230;51.502;10.800;2023-03-01T04:54:27;6.53;;;3.47;;
20138;SDS011;10230;51.502;10.800;2023-03-01T04:56:53;6.03;;;3.07;;
20138;SDS011;10230;51.502;10.800;2023-03-01T04:59:19;4.70;;;2.80;;
20138;SDS011;10230;51.502;10.800;2023-03-01T05:01:48;5.90;;;2.77;;
20138;SDS011;10230;51.502;10.800;2023-03-01T05:04:20;7.37;;;2.63;;
20138;SDS011;10230;51.502;10.800;2023-03-01T05:06:46;4.43;;;3.63;;
20138;SDS011;10230;51.502;10.800;2023-03-01T05:09:12;5.10;;;2.17;;
20138;SDS011;10230;51.502;10.800;2023-03-01T05:11:38;4.43;;;2.53;;
20138;SDS011;10230;51.502;10.800;2023-03-01T05:14:06;5.30;;;3.73;;
20138;SDS011;10230;51.502;10.800;2023-03-01T05:16:33;8.23;;;4.00;;
20138;SDS011;10230;51.502;10.800;2023-03-01T05:18:59;5.23;;;3.20;;
20138;SDS011;10230;51.502;10.800;2023-03-01T05:21:25;4.40;;;2.90;;
20138;SDS011;10230;51.502;10.800;2023-03-01T05:23:51;6.07;;;2.93;;
20138;SDS011;10230;51.502;10.800;2023-03-01T05:26:18;5.90;;;2.67;;
20138;SDS011;10230;51.502;10.800;2023-03-01T05:28:46;6.60;;;3.80;;
20138;SDS011;10230;51.502;10.800;2023-03-01T05:31:13;7.50;;;3.60;;
20138;SDS011;10230;51.502;10.800;2023-03-01T05:33:39;6.33;;;3.30;;
20138;SDS011;10230;51.502;10.800;2023-03-01T05:36:06;6.87;;;2.93;;
20138;SDS011;10230;51.502;10.800;2023-03-01T05:38:33;5.10;;;3.03;;
20138;SDS011;10230;51.502;10.800;2023-03-01T05:40:59;8.13;;;3.67;;
20138;SDS011;10230;51.502;10.800;2023-03-01T05:43:25;5.47;;;3.03;;
20138;SDS011;10230;51.502;10.800;2023-03-01T05:45:50;5.70;;;2.90;;
20138;SDS011;10230;51.502;10.800;2023-03-01T05:48:16;4.57;;;2.50;;
20138;SDS011;10230;51.502;10.800;2023-03-01T05:50:44;13.63;;;5.83;;
20138;SDS011;10230;51.502;10.800;2023-03-01T05:55:40;8.97;;;5.00;;
20138;SDS011;10230;51.502;10.800;2023-03-01T05:58:09;7.73;;;4.43;;
20138;SDS011;10230;51.502;10.800;2023-03-01T06:00:39;11.93;;;3.57;;
20138;SDS011;10230;51.502;10.800;2023-03-01T06:03:05;5.87;;;3.00;;
20138;SDS011;10230;51.502;10.800;2023-03-01T06:05:30;8.50;;;3.07;;
20138;SDS011;10230;51.502;10.800;2023-03-01T06:07:59;7.13;;;3.10;;
20138;SDS011;10230;51.502;10.800;2023-03-01T06:10:26;7.00;;;3.40;;
20138;SDS011;10230;51.502;10.800;2023-03-01T06:12:51;9.47;;;3.47;;
20138;SDS011;10230;51.502;10.800;2023-03-01T06:15:18;6.77;;;2.93;;
20138;SDS011;10230;51.502;10.800;2023-03-01T06:17:44;4.53;;;2.93;;
20138;SDS011;10230;51.502;10.800;2023-03-01T06:20:17;7.93;;;3.37;;
20138;SDS011;10230;51.502;10.800;2023-03-01T06:22:45;8.03;;;3.50;;
20138;SDS011;10230;51.502;10.800;2023-03-01T06:25:12;7.87;;;2.80;;
20138;SDS011;10230;51.502;10.800;2023-03-01T06:27:39;6.20;;;2.83;;
20138;SDS011;10230;51.502;10.800;2023-03-01T06:30:06;5.30;;;3.07;;
20138;SDS011;10230;51.502;10.800;2023-03-01T06:32:32;8.63;;;3.60;;
20138;SDS011;10230;51.502;10.800;2023-03-01T06:34:58;7.07;;;3.20;;
20138;SDS011;10230;51.502;10.800;2023-03-01T06:37:24;7.00;;;2.90;;
20138;SDS011;10230;51.502;10.800;2023-03-01T06:39:50;6.37;;;2.93;;
20138;SDS011;10230;51.502;10.800;2023-03-01T06:42:16;6.53;;;3.40;;
20138;SDS011;10230;51.502;10.800;2023-03-01T06:44:42;5.67;;;2.97;;
20138;SDS011;10230;51.502;10.800;2023-03-01T06:47:09;7.00;;;3.47;;
20138;SDS011;10230;51.502;10.800;2023-03-01T06:49:34;5.47;;;2.73;;
20138;SDS011;10230;51.502;10.800;2023-03-01T06:52:00;7.97;;;3.23;;
20138;SDS011;10230;51.502;10.800;2023-03-01T06:54:25;4.90;;;2.83;;
20138;SDS011;10230;51.502;10.800;2023-03-01T06:56:51;9.97;;;3.63;;
20138;SDS011;10230;51.502;10.800;2023-03-01T06:59:17;10.50;;;3.80;;
20138;SDS011;10230;51.502;10.800;2023-03-01T07:01:43;5.67;;;3.20;;
20138;SDS011;10230;51.502;10.800;2023-03-01T07:04:09;11.53;;;3.47;;
20138;SDS011;10230;51.502;10.800;2023-03-01T07:06:35;6.83;;;3.30;;
20138;SDS011;10230;51.502;10.800;2023-03-01T07:09:01;6.03;;;3.33;;
20138;SDS011;10230;51.502;10.800;2023-03-01T07:11:27;7.37;;;3.67;;
20138;SDS011;10230;51.502;10.800;2023-03-01T07:13:53;7.47;;;4.37;;
20138;SDS011;10230;51.502;10.800;2023-03-01T07:16:20;9.00;;;3.70;;
20138;SDS011;10230;51.502;10.800;2023-03-01T07:18:46;7.10;;;3.80;;
20138;SDS011;10230;51.502;10.800;2023-03-01T07:21:13;8.13;;;3.47;;
20138;SDS011;10230;51.502;10.800;2023-03-01T07:23:39;6.77;;;3.27;;
20138;SDS011;10230;51.502;10.800;2023-03-01T07:26:05;4.83;;;2.83;;
20138;SDS011;10230;51.502;10.800;2023-03-01T07:28:30;6.87;;;3.30;;
20138;SDS011;10230;51.502;10.800;2023-03-01T07:31:01;7.43;;;4.27;;
20138;SDS011;10230;51.502;10.800;2023-03-01T07:33:28;7.70;;;4.20;;
20138;SDS011;10230;51.502;10.800;2023-03-01T07:36:00;8.70;;;4.27;;
20138;SDS011;10230;51.502;10.800;2023-03-01T07:38:28;10.10;;;5.27;;
20138;SDS011;10230;51.502;10.800;2023-03-01T07:40:57;7.95;;;5.00;;
20138;SDS011;10230;51.502;10.800;2023-03-01T07:43:23;8.27;;;5.25;;
20138;SDS011;10230;51.502;10.800;2023-03-01T07:45:49;9.00;;;5.32;;
20138;SDS011;10230;51.502;10.800;2023-03-01T07:48:16;9.55;;;6.72;;
20138;SDS011;10230;51.502;10.800;2023-03-01T07:50:42;9.20;;;5.60;;
20138;SDS011;10230;51.502;10.800;2023-03-01T07:53:09;7.65;;;5.50;;
20138;SDS011;10230;51.502;10.800;2023-03-01T07:55:35;5.43;;;4.43;;
20138;SDS011;10230;51.502;10.800;2023-03-01T07:58:02;7.28;;;4.88;;
20138;SDS011;10230;51.502;10.800;2023-03-01T08:00:28;7.05;;;4.95;;
20138;SDS011;10230;51.502;10.800;2023-03-01T08:02:54;6.57;;;4.85;;
20138;SDS011;10230;51.502;10.800;2023-03-01T08:05:20;7.88;;;5.22;;
20138;SDS011;10230;51.502;10.800;2023-03-01T08:07:47;7.05;;;5.13;;
20138;SDS011;10230;51.502;10.800;2023-03-01T08:10:13;7.82;;;4.78;;
20138;SDS011;10230;51.502;10.800;2023-03-01T08:12:39;8.10;;;5.50;;
20138;SDS011;10230;51.502;10.800;2023-03-01T08:15:05;7.25;;;4.72;;
20138;SDS011;10230;51.502;10.800;2023-03-01T08:17:31;8.35;;;5.20;;
20138;SDS011;10230;51.502;10.800;2023-03-01T08:19:57;8.45;;;5.07;;
20138;SDS011;10230;51.502;10.800;2023-03-01T08:22:23;6.40;;;4.40;;
20138;SDS011;10230;51.502;10.800;2023-03-01T08:24:49;7.10;;;5.28;;
20138;SDS011;10230;51.502;10.800;2023-03-01T08:27:16;6.75;;;6.00;;
20138;SDS011;10230;51.502;10.800;2023-03-01T08:29:42;6.78;;;5.50;;
20138;SDS011;10230;51.502;10.800;2023-03-01T08:32:08;6.30;;;4.38;;
20138;SDS011;10230;51.502;10.800;2023-03-01T08:34:34;6.45;;;4.53;;
20138;SDS011;10230;51.502;10.800;2023-03-01T08:37:00;6.38;;;4.72;;
20138;SDS011;10230;51.502;10.800;2023-03-01T08:39:27;6.47;;;4.30;;
20138;SDS011;10230;51.502;10.800;2023-03-01T08:41:52;6.18;;;3.80;;
20138;SDS011;10230;51.502;10.800;2023-03-01T08:44:18;5.35;;;4.15;;
20138;SDS011;10230;51.502;10.800;2023-03-01T08:46:46;4.90;;;4.30;;
20138;SDS011;10230;51.502;10.800;2023-03-01T08:49:14;4.60;;;4.10;;
20138;SDS011;10230;51.502;10.800;2023-03-01T08:51:44;7.45;;;4.78;;
20138;SDS011;10230;51.502;10.800;2023-03-01T08:54:11;6.88;;;4.55;;
20138;SDS011;10230;51.502;10.800;2023-03-01T08:56:40;5.25;;;4.18;;
20138;SDS011;10230;51.502;10.800;2023-03-01T08:59:06;6.68;;;4.38;;
20138;SDS011;10230;51.502;10.800;2023-03-01T09:01:32;7.07;;;4.43;;
20138;SDS011;10230;51.502;10.800;2023-03-01T09:03:58;6.22;;;3.88;;
20138;SDS011;10230;51.502;10.800;2023-03-01T09:06:24;5.45;;;4.05;;
20138;SDS011;10230;51.502;10.800;2023-03-01T09:08:50;5.28;;;4.40;;
20138;SDS011;10230;51.502;10.800;2023-03-01T09:11:17;4.80;;;4.25;;
20138;SDS011;10230;51.502;10.800;2023-03-01T09:13:47;6.18;;;5.30;;
20138;SDS011;10230;51.502;10.800;2023-03-01T09:16:14;6.13;;;4.63;;
20138;SDS011;10230;51.502;10.800;2023-03-01T09:18:42;5.97;;;4.03;;
20138;SDS011;10230;51.502;10.800;2023-03-01T09:21:15;4.28;;;3.88;;
20138;SDS011;10230;51.502;10.800;2023-03-01T09:23:42;6.93;;;4.47;;
20138;SDS011;10230;51.502;10.800;2023-03-01T09:26:11;5.68;;;4.32;;
20138;SDS011;10230;51.502;10.800;2023-03-01T09:28:38;6.25;;;4.05;;
20138;SDS011;10230;51.502;10.800;2023-03-01T09:31:06;5.07;;;3.65;;
20138;SDS011;10230;51.502;10.800;2023-03-01T09:33:32;5.22;;;4.28;;
20138;SDS011;10230;51.502;10.800;2023-03-01T09:38:25;6.05;;;4.15;;
20138;SDS011;10230;51.502;10.800;2023-03-01T09:40:51;4.55;;;3.63;;
20138;SDS011;10230;51.502;10.800;2023-03-01T09:46:03;4.28;;;3.70;;
20138;SDS011;10230;51.502;10.800;2023-03-01T09:48:33;4.20;;;3.40;;
20138;SDS011;10230;51.502;10.800;2023-03-01T09:51:07;5.35;;;3.72;;
20138;SDS011;10230;51.502;10.800;2023-03-01T09:53:38;4.80;;;4.30;;
20138;SDS011;10230;51.502;10.800;2023-03-01T09:58:54;6.30;;;5.00;;
20138;SDS011;10230;51.502;10.800;2023-03-01T10:04:26;6.70;;;4.50;;
20138;SDS011;10230;51.502;10.800;2023-03-01T10:09:38;7.53;;;4.75;;
20138;SDS011;10230;51.502;10.800;2023-03-01T10:12:09;5.70;;;5.20;;
20138;SDS011;10230;51.502;10.800;2023-03-01T10:14:41;6.20;;;5.07;;
20138;SDS011;10230;51.502;10.800;2023-03-01T10:17:45;5.47;;;4.63;;
20138;SDS011;10230;51.502;10.800;2023-03-01T10:22:41;6.45;;;4.70;;
20138;SDS011;10230;51.502;10.800;2023-03-01T10:25:13;6.53;;;4.57;;
20138;SDS011;10230;51.502;10.800;2023-03-01T10:27:53;5.70;;;4.57;;
20138;SDS011;10230;51.502;10.800;2023-03-01T10:32:53;4.70;;;4.30;;
20138;SDS011;10230;51.502;10.800;2023-03-01T10:35:23;5.47;;;4.97;;
20138;SDS011;10230;51.502;10.800;2023-03-01T10:37:56;4.93;;;4.25;;
20138;SDS011;10230;51.502;10.800;2023-03-01T10:40:23;6.40;;;5.07;;
20138;SDS011;10230;51.502;10.800;2023-03-01T10:42:49;6.15;;;5.55;;
20138;SDS011;10230;51.502;10.800;2023-03-01T10:45:32;4.80;;;4.35;;
20138;SDS011;10230;51.502;10.800;2023-03-01T10:50:34;4.28;;;3.88;;
20138;SDS011;10230;51.502;10.800;2023-03-01T10:53:03;5.95;;;4.30;;
20138;SDS011;10230;51.502;10.800;2023-03-01T10:55:36;6.25;;;4.30;;
20138;SDS011;10230;51.502;10.800;2023-03-01T11:00:59;5.18;;;4.68;;
20138;SDS011;10230;51.502;10.800;2023-03-01T11:03:30;5.28;;;4.07;;
20138;SDS011;10230;51.502;10.800;2023-03-01T11:06:01;4.10;;;3.70;;
20138;SDS011;10230;51.502;10.800;2023-03-01T11:08:31;4.28;;;3.88;;
20138;SDS011;10230;51.502;10.800;2023-03-01T11:13:47;4.88;;;4.13;;
20138;SDS011;10230;51.502;10.800;2023-03-01T11:16:24;3.85;;;3.40;;
20138;SDS011;10230;51.502;10.800;2023-03-01T11:18:58;4.22;;;3.83;;
20138;SDS011;10230;51.502;10.800;2023-03-01T11:21:24;3.92;;;3.42;;
20138;SDS011;10230;51.502;10.800;2023-03-01T11:23:51;4.97;;;3.47;;
20138;SDS011;10230;51.502;10.800;2023-03-01T11:26:18;5.82;;;3.50;;
20138;SDS011;10230;51.502;10.800;2023-03-01T11:28:46;3.60;;;2.97;;
20138;SDS011;10230;51.502;10.800;2023-03-01T11:31:15;4.78;;;3.05;;
20138;SDS011;10230;51.502;10.800;2023-03-01T11:34:16;4.20;;;3.70;;
20138;SDS011;10230;51.502;10.800;2023-03-01T11:39:05;3.88;;;3.40;;
20138;SDS011;10230;51.502;10.800;2023-03-01T11:41:39;3.60;;;3.30;;
20138;SDS011;10230;51.502;10.800;2023-03-01T11:44:16;4.47;;;3.80;;
20138;SDS011;10230;51.502;10.800;2023-03-01T12:00:23;3.90;;;3.45;;
20138;SDS011;10230;51.502;10.800;2023-03-01T12:11:16;3.15;;;2.85;;
20138;SDS011;10230;51.502;10.800;2023-03-01T12:26:58;4.53;;;2.85;;
20138;SDS011;10230;51.502;10.800;2023-03-01T12:29:53;4.38;;;2.42;;
20138;SDS011;10230;51.502;10.800;2023-03-01T12:42:35;2.92;;;2.53;;
20138;SDS011;10230;51.502;10.800;2023-03-01T12:45:30;2.90;;;2.53;;
20138;SDS011;10230;51.502;10.800;2023-03-01T12:48:04;2.67;;;2.47;;
20138;SDS011;10230;51.502;10.800;2023-03-01T12:50:46;3.38;;;2.47;;
20138;SDS011;10230;51.502;10.800;2023-03-01T12:55:49;3.63;;;2.38;;
20138;SDS011;10230;51.502;10.800;2023-03-01T13:01:02;2.20;;;1.75;;
20138;SDS011;10230;51.502;10.800;2023-03-01T13:03:36;2.63;;;2.00;;
20138;SDS011;10230;51.502;10.800;2023-03-01T13:06:07;1.98;;;1.67;;
20138;SDS011;10230;51.502;10.800;2023-03-01T13:11:19;2.80;;;2.03;;
20138;SDS011;10230;51.502;10.800;2023-03-01T13:13:46;3.13;;;2.17;;
20138;SDS011;10230;51.502;10.800;2023-03-01T13:18:45;4.00;;;2.10;;
20138;SDS011;10230;51.502;10.800;2023-03-01T13:21:12;3.92;;;2.28;;
20138;SDS011;10230;51.502;10.800;2023-03-01T13:23:55;4.75;;;2.60;;
20138;SDS011;10230;51.502;10.800;2023-03-01T13:26:21;3.58;;;2.47;;
20138;SDS011;10230;51.502;10.800;2023-03-01T13:28:50;4.45;;;2.58;;
20138;SDS011;10230;51.502;10.800;2023-03-01T13:39:02;3.40;;;2.08;;
20138;SDS011;10230;51.502;10.800;2023-03-01T13:46:46;5.03;;;2.15;;
20138;SDS011;10230;51.502;10.800;2023-03-01T13:49:14;4.27;;;2.80;;
20138;SDS011;10230;51.502;10.800;2023-03-01T13:51:46;5.57;;;2.80;;
20138;SDS011;10230;51.502;10.800;2023-03-01T13:54:12;5.30;;;2.77;;
20138;SDS011;10230;51.502;10.800;2023-03-01T13:56:40;5.37;;;2.30;;
20138;SDS011;10230;51.502;10.800;2023-03-01T13:59:19;2.67;;;2.07;;
20138;SDS011;10230;51.502;10.800;2023-03-01T14:01:53;4.37;;;1.83;;
20138;SDS011;10230;51.502;10.800;2023-03-01T14:07:08;3.40;;;2.30;;
20138;SDS011;10230;51.502;10.800;2023-03-01T14:09:44;3.13;;;2.40;;
20138;SDS011;10230;51.502;10.800;2023-03-01T14:17:52;4.33;;;2.20;;
20138;SDS011;10230;51.502;10.800;2023-03-01T14:20:24;4.03;;;2.30;;
20138;SDS011;10230;51.502;10.800;2023-03-01T14:23:01;5.93;;;2.33;;
20138;SDS011;10230;51.502;10.800;2023-03-01T14:25:34;6.50;;;2.57;;
20138;SDS011;10230;51.502;10.800;2023-03-01T14:28:03;2.90;;;2.13;;
20138;SDS011;10230;51.502;10.800;2023-03-01T14:30:41;5.73;;;2.40;;
20138;SDS011;10230;51.502;10.800;2023-03-01T14:35:56;5.40;;;3.60;;
20138;SDS011;10230;51.502;10.800;2023-03-01T14:38:42;5.03;;;2.77;;
20138;SDS011;10230;51.502;10.800;2023-03-01T14:41:11;2.77;;;2.17;;
20138;SDS011;10230;51.502;10.800;2023-03-01T14:43:53;5.17;;;2.33;;
20138;SDS011;10230;51.502;10.800;2023-03-01T14:46:24;3.33;;;2.27;;
20138;SDS011;10230;51.502;10.800;2023-03-01T14:49:04;5.53;;;2.10;;
20138;SDS011;10230;51.502;10.800;2023-03-01T14:51:40;3.20;;;1.80;;
20138;SDS011;10230;51.502;10.800;2023-03-01T14:56:48;4.40;;;2.03;;
20138;SDS011;10230;51.502;10.800;2023-03-01T14:59:18;4.17;;;2.63;;
20138;SDS011;10230;51.502;10.800;2023-03-01T15:01:47;3.20;;;2.10;;
20138;SDS011;10230;51.502;10.800;2023-03-01T15:04:13;8.13;;;2.77;;
20138;SDS011;10230;51.502;10.800;2023-03-01T15:06:40;7.07;;;4.13;;
20138;SDS011;10230;51.502;10.800;2023-03-01T15:09:06;4.97;;;2.07;;
20138;SDS011;10230;51.502;10.800;2023-03-01T15:11:36;4.50;;;2.80;;
20138;SDS011;10230;51.502;10.800;2023-03-01T15:14:27;4.13;;;1.70;;
20138;SDS011;10230;51.502;10.800;2023-03-01T15:16:52;5.57;;;2.00;;
20138;SDS011;10230;51.502;10.800;2023-03-01T15:19:18;4.97;;;2.77;;
20138;SDS011;10230;51.502;10.800;2023-03-01T15:21:44;5.03;;;2.53;;
20138;SDS011;10230;51.502;10.800;2023-03-01T15:26:49;4.00;;;2.60;;
20138;SDS011;10230;51.502;10.800;2023-03-01T15:29:32;3.77;;;2.53;;
20138;SDS011;10230;51.502;10.800;2023-03-01T15:32:20;3.47;;;2.03;;
20138;SDS011;10230;51.502;10.800;2023-03-01T15:34:59;3.10;;;1.87;;
20138;SDS011;10230;51.502;10.800;2023-03-01T15:40:25;4.93;;;2.37;;
20138;SDS011;10230;51.502;10.800;2023-03-01T15:43:02;3.73;;;1.90;;
20138;SDS011;10230;51.502;10.800;2023-03-01T15:45:30;3.53;;;1.87;;
20138;SDS011;10230;51.502;10.800;2023-03-01T15:48:13;3.50;;;2.17;;
20138;SDS011;10230;51.502;10.800;2023-03-01T15:50:42;5.53;;;2.17;;
20138;SDS011;10230;51.502;10.800;2023-03-01T15:53:12;6.40;;;2.87;;
20138;SDS011;10230;51.502;10.800;2023-03-01T15:55:40;2.40;;;2.00;;
20138;SDS011;10230;51.502;10.800;2023-03-01T15:58:09;3.23;;;2.00;;
20138;SDS011;10230;51.502;10.800;2023-03-01T16:00:38;5.13;;;3.03;;
20138;SDS011;10230;51.502;10.800;2023-03-01T16:03:04;4.07;;;2.27;;
20138;SDS011;10230;51.502;10.800;2023-03-01T16:05:32;3.57;;;2.00;;
20138;SDS011;10230;51.502;10.800;2023-03-01T16:08:02;5.43;;;2.13;;
20138;SDS011;10230;51.502;10.800;2023-03-01T16:10:30;5.00;;;2.40;;
20138;SDS011;10230;51.502;10.800;2023-03-01T16:12:57;4.23;;;2.17;;
20138;SDS011;10230;51.502;10.800;2023-03-01T16:17:53;5.47;;;2.97;;
20138;SDS011;10230;51.502;10.800;2023-03-01T16:20:19;4.73;;;2.40;;
20138;SDS011;10230;51.502;10.800;2023-03-01T16:22:45;3.97;;;2.37;;
20138;SDS011;10230;51.502;10.800;2023-03-01T16:25:13;5.00;;;3.13;;
20138;SDS011;10230;51.502;10.800;2023-03-01T16:27:43;4.17;;;2.33;;
20138;SDS011;10230;51.502;10.800;2023-03-01T16:30:09;6.10;;;2.03;;
20138;SDS011;10230;51.502;10.800;2023-03-01T16:32:39;4.20;;;2.43;;
20138;SDS011;10230;51.502;10.800;2023-03-01T16:35:06;3.73;;;2.20;;
20138;SDS011;10230;51.502;10.800;2023-03-01T16:37:33;6.60;;;2.40;;
20138;SDS011;10230;51.502;10.800;2023-03-01T16:39:59;7.03;;;2.77;;
20138;SDS011;10230;51.502;10.800;2023-03-01T16:42:25;5.73;;;2.50;;
20138;SDS011;10230;51.502;10.800;2023-03-01T16:44:55;3.97;;;1.93;;
20138;SDS011;10230;51.502;10.800;2023-03-01T16:47:21;6.17;;;2.10;;
20138;SDS011;10230;51.502;10.800;2023-03-01T16:49:46;3.13;;;1.93;;
20138;SDS011;10230;51.502;10.800;2023-03-01T16:52:12;4.10;;;2.23;;
20138;SDS011;10230;51.502;10.800;2023-03-01T16:54:38;6.07;;;2.27;;
20138;SDS011;10230;51.502;10.800;2023-03-01T16:57:03;8.70;;;2.47;;
20138;SDS011;10230;51.502;10.800;2023-03-01T16:59:30;2.97;;;1.80;;